Time;durP1;ratioP1;P1;durP2;ratioP2;P2;SDS_P1;SDS_P2;PMS_P1;PMS_P2;Temp;Humidity;BMP_temperature;BMP_pressure;BME280_temperature;BME280_humidity;BME280_pressure;Samples;Min_cycle;Max_cycle;Signal;HPM_P1;HPM_P2
2022/10/05 00:02:15;;;;;;;4.93;2.97;;;;;;;4.29;100.00;96939.19;6127175;23;20412;-78
2022/10/05 00:04:42;;;;;;;6.50;3.60;;;;;;;4.20;100.00;96917.25;6102964;23;20404;-77
2022/10/05 00:07:14;;;;;;;9.00;3.43;;;;;;;4.39;100.00;96949.59;6153222;23;20381;-78
2022/10/05 00:09:41;;;;;;;5.13;3.07;;;;;;;4.22;100.00;96909.91;6102964;23;20402;-78
2022/10/05 00:12:12;;;;;;;6.63;3.30;;;;;;;4.30;100.00;96924.28;6102652;23;20396;-78
2022/10/05 00:14:39;;;;;;;4.13;3.73;;;;;;;4.46;100.00;96957.16;6102877;23;20918;-78
2022/10/05 00:17:05;;;;;;;3.43;3.13;;;;;;;4.30;100.00;96925.06;6126802;23;20432;-78
2022/10/05 00:19:36;;;;;;;8.87;3.50;;;;;;;4.46;100.00;96949.31;6102530;23;20938;-78
2022/10/05 00:22:20;;;;;;;3.30;2.97;;;;;;;4.31;100.00;96915.38;6127372;23;20419;-78
2022/10/05 00:24:53;;;;;;;5.03;3.00;;;;;;;4.41;100.00;96939.66;6126939;23;20487;-78
2022/10/05 00:27:30;;;;;;;5.00;2.77;;;;;;;4.44;100.00;96940.94;6126844;23;20395;-78
2022/10/05 00:29:59;;;;;;;6.33;3.40;;;;;;;4.33;100.00;96926.34;6103016;23;20383;-77
2022/10/05 00:32:26;;;;;;;3.33;2.90;;;;;;;3.95;100.00;96880.75;6103268;23;20408;-78
2022/10/05 00:34:53;;;;;;;7.33;3.20;;;;;;;4.36;100.00;96921.34;6127393;23;20490;-77
2022/10/05 00:37:19;;;;;;;3.47;3.17;;;;;;;4.35;100.00;96921.63;6126948;23;20514;-75
2022/10/05 00:39:48;;;;;;;3.07;2.77;;;;;;;4.18;100.00;96884.56;6153308;23;20957;-75
2022/10/05 00:42:47;;;;;;;8.10;3.97;;;;;;;4.36;100.00;96926.56;6127258;23;20386;-75
2022/10/05 00:45:23;;;;;;;3.10;2.80;;;;;;;3.93;100.00;96888.09;6102659;23;20396;-76
2022/10/05 00:48:15;;;;;;;3.80;3.30;;;;;;;4.07;100.00;96889.06;6127248;23;20402;-78
2022/10/05 00:51:05;;;;;;;3.20;2.87;;;;;;;4.24;100.00;96913.03;6128501;23;20720;-78
2022/10/05 00:53:49;;;;;;;2.73;2.53;;;;;;;4.17;100.00;96909.16;6155275;23;20372;-77
2022/10/05 00:56:24;;;;;;;9.20;3.10;;;;;;;4.01;100.00;96872.63;6128820;23;20418;-78
2022/10/05 00:59:18;;;;;;;3.93;3.63;;;;;;;3.86;100.00;96904.06;6130121;23;20445;-78
2022/10/05 01:02:14;;;;;;;3.73;3.10;;;;;;;3.90;100.00;96909.56;6155029;23;21003;-76
2022/10/05 01:04:52;;;;;;;3.77;3.43;;;;;;;4.03;100.00;96919.44;6115453;23;20893;-76
2022/10/05 01:07:42;;;;;;;3.50;3.20;;;;;;;3.96;100.00;96885.72;6154846;23;20463;-76
2022/10/05 01:10:39;;;;;;;5.23;3.43;;;;;;;4.20;100.00;96919.09;6154940;23;20428;-76
2022/10/05 01:13:21;;;;;;;3.90;3.57;;;;;;;4.16;100.00;96916.22;6128685;23;20400;-76
2022/10/05 01:15:56;;;;;;;3.40;3.10;;;;;;;3.83;100.00;96863.53;6128764;23;20430;-76
2022/10/05 01:18:39;;;;;;;4.30;3.90;;;;;;;4.04;100.00;96889.59;6129018;23;20462;-76
2022/10/05 01:21:23;;;;;;;3.80;3.40;;;;;;;4.14;100.00;96913.91;6128721;23;20400;-76
2022/10/05 01:24:16;;;;;;;6.40;4.13;;;;;;;3.93;100.00;96904.56;6154886;23;20372;-76
2022/10/05 01:27:09;;;;;;;4.70;4.30;;;;;;;3.93;100.00;96894.09;6091334;23;20411;-76
2022/10/05 01:29:48;;;;;;;9.07;4.30;;;;;;;4.02;100.00;96913.44;6128421;23;20451;-77
2022/10/05 01:32:22;;;;;;;4.23;3.87;;;;;;;4.02;100.00;96910.81;6104298;23;20494;-76
2022/10/05 01:35:03;;;;;;;5.17;3.57;;;;;;;3.66;100.00;96865.72;6128452;23;20409;-75
2022/10/05 01:37:45;;;;;;;6.33;3.80;;;;;;;3.98;100.00;96903.75;6154544;23;20407;-76
2022/10/05 01:40:36;;;;;;;4.17;3.13;;;;;;;3.99;100.00;96885.16;6129184;23;20368;-76
2022/10/05 01:43:41;;;;;;;4.23;3.83;;;;;;;3.99;100.00;96890.41;6104544;23;20392;-76
2022/10/05 01:46:23;;;;;;;4.60;3.27;;;;;;;3.99;100.00;96905.31;6128814;23;20384;-76
2022/10/05 01:49:11;;;;;;;5.40;4.40;;;;;;;3.63;100.00;96857.63;6128231;23;21024;-75
2022/10/05 01:51:55;;;;;;;5.20;4.17;;;;;;;3.92;100.00;96897.00;6128381;23;20406;-76
2022/10/05 01:54:56;;;;;;;4.33;3.60;;;;;;;3.79;100.00;96900.97;6128462;23;20928;-75
2022/10/05 01:57:41;;;;;;;8.33;4.53;;;;;;;3.92;100.00;96902.22;6103807;23;20937;-76
2022/10/05 02:00:11;;;;;;;6.70;5.17;;;;;;;3.87;100.00;96897.78;6104180;23;20398;-76
2022/10/05 02:02:47;;;;;;;6.43;4.43;;;;;;;3.58;100.00;96847.19;6104640;23;20858;-76
2022/10/05 02:05:17;;;;;;;5.00;3.33;;;;;;;3.92;100.00;96889.94;6128345;23;20889;-76
2022/10/05 02:07:50;;;;;;;5.40;4.10;;;;;;;3.86;100.00;96899.63;6128349;23;20467;-76
2022/10/05 02:10:23;;;;;;;6.30;4.03;;;;;;;3.89;100.00;96895.69;6128370;23;20495;-76
2022/10/05 02:12:57;;;;;;;6.20;3.57;;;;;;;3.73;100.00;96891.56;6104119;23;20491;-76
2022/10/05 02:15:40;;;;;;;7.77;4.23;;;;;;;3.48;100.00;96889.84;6128302;23;20794;-76
2022/10/05 02:18:15;;;;;;;4.27;3.93;;;;;;;3.32;100.00;96849.88;6127925;23;20440;-76
2022/10/05 02:20:43;;;;;;;5.90;3.63;;;;;;;3.69;100.00;96906.22;6128247;23;20881;-76
2022/10/05 02:23:16;;;;;;;3.60;3.30;;;;;;;3.66;100.00;96917.22;6128468;23;20404;-76
2022/10/05 02:25:46;;;;;;;8.53;3.17;;;;;;;3.65;100.00;96921.69;6103801;23;20866;-76
2022/10/05 02:28:28;;;;;;;4.00;3.63;;;;;;;3.29;100.00;96889.63;6128068;23;20428;-76
2022/10/05 02:31:05;;;;;;;4.90;3.70;;;;;;;3.30;100.00;96912.09;6127982;23;20794;-76
2022/10/05 02:33:33;;;;;;;4.93;4.50;;;;;;;3.12;100.00;96863.81;6127913;23;20402;-76
2022/10/05 02:36:31;;;;;;;4.43;3.77;;;;;;;3.18;100.00;96862.72;6104776;23;20468;-76
2022/10/05 02:39:10;;;;;;;6.37;3.80;;;;;;;3.35;100.00;96872.91;6127580;23;20498;-76
2022/10/05 02:41:55;;;;;;;5.23;4.07;;;;;;;3.33;100.00;96895.09;6127855;23;20789;-77
2022/10/05 02:44:38;;;;;;;4.43;3.60;;;;;;;2.97;100.00;96892.56;6127868;23;20392;-76
2022/10/05 02:47:22;;;;;;;3.60;3.30;;;;;;;3.23;100.00;96893.31;6127995;23;20938;-76
2022/10/05 02:50:14;;;;;;;4.67;4.27;;;;;;;3.16;100.00;96877.88;6127700;23;20414;-76
2022/10/05 02:52:55;;;;;;;8.33;3.87;;;;;;;3.31;100.00;96879.69;6103663;23;20424;-76
2022/10/05 02:55:55;;;;;;;4.20;3.80;;;;;;;3.33;100.00;96882.81;6103903;23;20818;-76
2022/10/05 02:58:26;;;;;;;10.03;4.90;;;;;;;3.25;100.00;96871.09;6084837;23;20443;-76
2022/10/05 03:01:12;;;;;;;4.50;4.00;;;;;;;3.34;100.00;96879.16;6127857;23;20811;-76
2022/10/05 03:04:07;;;;;;;9.40;3.80;;;;;;;2.97;100.00;96869.84;6127825;23;20400;-75
2022/10/05 03:06:49;;;;;;;4.43;4.03;;;;;;;2.67;100.00;96870.66;6127865;23;20883;-75
2022/10/05 03:09:20;;;;;;;6.23;4.07;;;;;;;2.61;100.00;96836.97;6153949;23;20451;-77
2022/10/05 03:12:20;;;;;;;5.03;3.97;;;;;;;2.72;100.00;96862.03;6103208;23;20385;-77
2022/10/05 03:15:10;;;;;;;5.00;3.70;;;;;;;2.90;100.00;96871.13;6127245;23;20790;-76
2022/10/05 03:18:01;;;;;;;6.60;4.73;;;;;;;2.82;100.00;96863.84;6103317;23;20436;-76
2022/10/05 03:20:52;;;;;;;6.90;4.63;;;;;;;3.03;100.00;96872.44;6127447;23;20482;-76
2022/10/05 03:23:38;;;;;;;7.83;4.13;;;;;;;2.87;100.00;96853.41;6103510;23;20400;-76
2022/10/05 03:26:12;;;;;;;5.40;3.87;;;;;;;3.12;100.00;96878.69;6127414;23;20754;-76
2022/10/05 03:28:55;;;;;;;5.97;4.90;;;;;;;2.96;100.00;96857.84;6127482;23;20435;-76
2022/10/05 03:31:42;;;;;;;4.23;3.83;;;;;;;3.07;100.00;96884.72;6153876;23;20806;-76
2022/10/05 03:34:30;;;;;;;6.33;3.90;;;;;;;2.81;100.00;96850.03;6127326;23;20891;-76
2022/10/05 03:37:20;;;;;;;7.03;3.90;;;;;;;2.75;100.00;96874.56;6103109;23;20491;-76
2022/10/05 03:39:49;;;;;;;7.00;4.07;;;;;;;2.75;100.00;96871.94;6127441;23;20398;-76
2022/10/05 03:42:31;;;;;;;3.83;3.53;;;;;;;2.48;100.00;96832.28;6127339;23;20407;-76
2022/10/05 03:45:01;;;;;;;4.00;3.60;;;;;;;2.65;100.00;96843.22;6127391;23;20396;-76
2022/10/05 03:47:36;;;;;;;5.33;3.73;;;;;;;2.92;100.00;96872.44;6103127;23;20408;-76
2022/10/05 03:50:19;;;;;;;4.40;3.57;;;;;;;2.02;100.00;96783.50;6103216;23;20398;-76
2022/10/05 03:53:01;;;;;;;4.93;3.60;;;;;;;2.46;100.00;96839.59;6103046;23;20427;-78
2022/10/05 03:55:38;;;;;;;7.30;3.90;;;;;;;2.63;100.00;96858.38;6127416;23;20407;-76
2022/10/05 03:58:53;;;;;;;4.70;4.30;;;;;;;2.74;100.00;96857.31;6127066;23;20497;-76
2022/10/05 04:01:30;;;;;;;4.80;4.30;;;;;;;2.88;100.00;96854.97;6083122;23;20411;-75
2022/10/05 04:04:02;;;;;;;4.47;4.03;;;;;;;2.78;100.00;96837.47;6103227;23;20446;-76
2022/10/05 04:06:34;;;;;;;4.10;3.80;;;;;;;2.63;100.00;96853.16;6127068;23;20396;-76
2022/10/05 04:09:29;;;;;;;4.83;4.40;;;;;;;2.55;100.00;96827.59;6127122;23;20740;-76
2022/10/05 04:12:22;;;;;;;4.20;3.80;;;;;;;2.63;100.00;96829.66;6127002;23;20419;-76
2022/10/05 04:14:56;;;;;;;6.03;4.00;;;;;;;2.74;100.00;96844.28;6102872;23;20407;-75
2022/10/05 04:17:32;;;;;;;5.03;4.33;;;;;;;2.74;100.00;96839.03;6126938;23;20817;-76
2022/10/05 04:20:02;;;;;;;4.37;3.97;;;;;;;2.42;100.00;96789.75;6126979;23;20885;-76
2022/10/05 04:22:47;;;;;;;4.30;3.90;;;;;;;2.63;100.00;96806.16;6127247;23;20882;-76
2022/10/05 04:25:19;;;;;;;4.43;3.40;;;;;;;2.29;100.00;96782.47;6153888;23;20431;-76
2022/10/05 04:27:53;;;;;;;6.40;3.50;;;;;;;2.30;100.00;96797.84;6102720;23;20420;-76
2022/10/05 04:30:23;;;;;;;5.47;3.57;;;;;;;2.23;100.00;96784.28;6153346;23;20430;-76
2022/10/05 04:32:56;;;;;;;6.47;4.50;;;;;;;2.41;100.00;96827.34;6127119;23;20886;-77
2022/10/05 04:35:47;;;;;;;4.50;3.93;;;;;;;2.40;100.00;96807.47;6126893;23;20392;-77
2022/10/05 04:38:43;;;;;;;3.93;3.53;;;;;;;2.58;100.00;96824.44;6126706;23;20470;-76
2022/10/05 04:41:44;;;;;;;5.37;4.33;;;;;;;2.58;100.00;96827.84;6026974;23;20417;-76
2022/10/05 04:44:40;;;;;;;6.57;3.90;;;;;;;2.58;100.00;96829.66;6126993;23;20745;-76
2022/10/05 04:47:31;;;;;;;9.20;4.00;;;;;;;2.69;100.00;96833.84;6102890;23;20454;-76
2022/10/05 04:50:37;;;;;;;4.87;3.47;;;;;;;2.94;100.00;96827.81;6127168;23;20396;-76
2022/10/05 04:53:09;;;;;;;13.00;5.43;;;;;;;2.87;100.00;96828.06;6115218;23;20404;-76
2022/10/05 04:55:51;;;;;;;7.23;5.40;;;;;;;3.05;100.00;96833.75;6106859;23;20411;-77
2022/10/05 04:58:51;;;;;;;8.13;5.30;;;;;;;3.11;100.00;96835.34;6129738;23;20431;-76
2022/10/05 05:01:32;;;;;;;4.83;4.37;;;;;;;2.99;100.00;96809.50;6105509;23;20400;-76
2022/10/05 05:04:28;;;;;;;8.33;6.83;;;;;;;3.02;100.00;96823.84;6129430;23;20407;-77
2022/10/05 05:06:55;;;;;;;9.57;7.37;;;;;;;3.07;100.00;96810.78;6106510;23;20414;-78
2022/10/05 05:09:37;;;;;;;10.53;9.43;;;;;;;3.12;100.00;96818.59;6132752;23;20431;-78
2022/10/05 05:12:18;;;;;;;14.50;12.00;;;;;;;3.07;100.00;96826.44;6127056;23;20491;-77
2022/10/05 05:14:56;;;;;;;6.70;6.10;;;;;;;2.81;100.00;96836.19;6126970;23;20414;-77
2022/10/05 05:17:32;;;;;;;7.83;7.07;;;;;;;2.71;100.00;96812.69;6127051;23;20400;-77
2022/10/05 05:20:22;;;;;;;7.17;6.10;;;;;;;2.62;100.00;96839.31;6126742;23;20439;-78
2022/10/05 05:23:12;;;;;;;9.33;6.63;;;;;;;2.47;100.00;96818.44;6127554;23;20400;-77
2022/10/05 05:25:46;;;;;;;9.90;9.00;;;;;;;2.70;100.00;96835.41;6127085;23;20977;-77
2022/10/05 05:28:41;;;;;;;12.10;11.00;;;;;;;2.51;100.00;96816.88;6127347;23;20427;-77
2022/10/05 05:31:32;;;;;;;7.13;6.47;;;;;;;2.51;100.00;96837.75;6126625;23;20470;-77
2022/10/05 05:34:19;;;;;;;7.30;5.30;;;;;;;2.60;100.00;96830.97;6102673;23;20399;-77
2022/10/05 05:36:54;;;;;;;10.00;8.03;;;;;;;2.52;100.00;96804.59;6127072;23;20973;-77
2022/10/05 05:39:48;;;;;;;10.33;9.20;;;;;;;2.78;100.00;96832.25;6104487;23;20446;-78
2022/10/05 05:42:23;;;;;;;9.07;8.23;;;;;;;2.71;100.00;96828.34;6128905;23;20887;-77
2022/10/05 05:44:55;;;;;;;10.30;8.00;;;;;;;2.43;100.00;96790.53;6128635;23;20948;-77
2022/10/05 05:47:37;;;;;;;9.20;7.83;;;;;;;2.77;100.00;96835.13;6128613;23;20995;-77
2022/10/05 05:50:04;;;;;;;7.73;6.93;;;;;;;3.08;100.00;96839.25;6128766;23;20400;-77
2022/10/05 05:52:50;;;;;;;15.17;11.30;;;;;;;3.17;100.00;96831.66;6128681;23;20744;-77
2022/10/05 05:55:28;;;;;;;12.17;8.80;;;;;;;2.97;100.00;96848.16;6128582;23;20427;-77
2022/10/05 05:58:01;;;;;;;7.93;7.13;;;;;;;3.03;100.00;96867.22;6104948;23;20940;-78
2022/10/05 06:00:36;;;;;;;10.07;8.10;;;;;;;3.06;100.00;96858.84;6128551;23;20900;-77
2022/10/05 06:03:20;;;;;;;18.63;8.17;;;;;;;3.45;100.00;96854.53;6128741;23;20424;-78
2022/10/05 06:05:52;;;;;;;10.80;8.70;;;;;;;3.23;100.00;96830.59;6128611;23;20463;-77
2022/10/05 06:08:32;;;;;;;10.57;8.30;;;;;;;3.33;100.00;96868.97;6128679;23;20507;-77
2022/10/05 06:11:17;;;;;;;8.80;6.80;;;;;;;3.18;100.00;96870.56;6129293;23;20446;-76
2022/10/05 06:13:45;;;;;;;8.87;6.57;;;;;;;3.07;100.00;96839.50;6105240;23;20415;-76
2022/10/05 06:16:22;;;;;;;9.13;8.07;;;;;;;3.25;100.00;96872.91;6105041;23;20470;-77
2022/10/05 06:19:03;;;;;;;9.07;7.70;;;;;;;3.12;100.00;96873.47;6129205;23;20445;-76
2022/10/05 06:21:36;;;;;;;9.50;8.40;;;;;;;2.75;100.00;96832.78;6129230;23;20396;-78
2022/10/05 06:24:09;;;;;;;9.20;7.70;;;;;;;2.88;100.00;96878.47;6105624;23;20400;-77
2022/10/05 06:27:03;;;;;;;7.13;6.23;;;;;;;2.72;100.00;96882.91;6105319;23;20483;-78
2022/10/05 06:30:13;;;;;;;10.03;7.60;;;;;;;2.95;100.00;96886.81;6129338;23;20925;-77
2022/10/05 06:32:43;;;;;;;6.67;6.07;;;;;;;3.18;100.00;96891.47;6129723;23;20792;-77
2022/10/05 06:35:48;;;;;;;58.43;42.63;;;;;;;3.38;100.00;96895.09;6129238;23;20467;-78
2022/10/05 06:38:41;;;;;;;31.80;23.67;;;;;;;3.80;100.00;96899.91;6128157;23;20446;-78
2022/10/05 06:41:31;;;;;;;19.00;16.33;;;;;;;4.15;100.00;96901.59;6094295;23;20495;-78
2022/10/05 06:44:00;;;;;;;19.57;15.50;;;;;;;4.17;100.00;96896.09;6104222;23;20414;-79
2022/10/05 06:47:29;;;;;;;14.23;12.40;;;;;;;4.29;100.00;96909.63;6138529;23;20404;-79
2022/10/05 06:50:51;;;;;;;7.43;6.73;;;;;;;4.38;100.00;96915.84;6148337;23;20396;-78
2022/10/05 06:53:47;;;;;;;9.20;7.80;;;;;;;4.44;100.00;96901.66;6101011;23;20811;-78
2022/10/05 06:56:21;;;;;;;8.50;7.70;;;;;;;3.64;100.00;96765.88;6128022;23;20396;-78
2022/10/05 06:59:00;;;;;;;7.90;7.07;;;;;;;4.66;100.00;96861.94;6103865;23;20441;-78
2022/10/05 07:01:39;;;;;;;9.63;6.50;;;;;;;5.07;100.00;96904.31;6128151;23;20388;-79
2022/10/05 07:04:34;;;;;;;9.20;7.20;;;;;;;5.30;100.00;96900.16;6128210;23;20498;-79
2022/10/05 07:07:19;;;;;;;8.10;6.07;;;;;;;5.56;100.00;96898.84;6104196;23;20404;-78
2022/10/05 07:09:55;;;;;;;8.30;6.60;;;;;;;5.83;100.00;96892.22;6128138;23;20487;-79
2022/10/05 07:12:53;;;;;;;12.40;8.23;;;;;;;5.97;100.00;96905.47;6103993;23;20384;-79
2022/10/05 07:15:42;;;;;;;12.60;6.97;;;;;;;6.03;100.00;96901.75;6129894;23;20400;-78
2022/10/05 07:18:49;;;;;;;12.57;7.57;;;;;;;6.23;100.00;96902.22;6128502;23;20438;-78
2022/10/05 07:21:27;;;;;;;8.70;6.80;;;;;;;6.43;100.00;96909.06;6128459;23;20419;-79
2022/10/05 07:24:28;;;;;;;12.27;7.20;;;;;;;6.64;100.00;96917.41;6104165;23;20423;-79
2022/10/05 07:27:16;;;;;;;5.87;5.27;;;;;;;7.04;100.00;96913.38;6130729;23;20406;-78
2022/10/05 07:30:08;;;;;;;6.60;4.60;;;;;;;7.34;100.00;96914.69;6130751;23;20402;-79
2022/10/05 07:33:08;;;;;;;11.97;4.73;;;;;;;7.45;100.00;96911.88;6131287;23;20407;-79
2022/10/05 07:39:14;;;;;;;4.87;3.77;;;;;;;7.82;100.00;96919.59;6130144;23;20450;-78
2022/10/05 07:41:52;;;;;;;6.00;5.10;;;;;;;7.82;100.00;96921.44;6108897;23;20925;-79
2022/10/05 07:44:38;;;;;;;6.30;5.43;;;;;;;7.86;100.00;96922.41;6107006;23;20399;-79
2022/10/05 07:47:10;;;;;;;10.80;5.40;;;;;;;7.94;100.00;96927.78;6154748;23;20941;-79
2022/10/05 07:49:52;;;;;;;5.90;5.40;;;;;;;7.95;100.00;96905.63;6103985;23;20809;-79
2022/10/05 07:52:23;;;;;;;6.07;5.27;;;;;;;7.74;100.00;96864.22;6154497;23;20368;-79
2022/10/05 07:55:02;;;;;;;5.43;5.03;;;;;;;8.18;100.00;96934.69;6104182;23;20419;-79
2022/10/05 07:57:59;;;;;;;6.20;5.13;;;;;;;8.28;100.00;96940.53;6128539;23;20403;-79
2022/10/05 08:00:59;;;;;;;6.10;4.30;;;;;;;8.08;100.00;96895.38;6085509;23;20486;-80
2022/10/05 08:03:59;;;;;;;5.57;4.60;;;;;;;8.25;100.00;96940.31;6104567;23;20498;-79
2022/10/05 08:06:41;;;;;;;6.57;5.90;;;;;;;8.25;100.00;96943.72;6104334;23;20403;-80
2022/10/05 08:09:36;;;;;;;6.43;5.83;;;;;;;8.08;100.00;96937.53;6128451;23;20426;-79
2022/10/05 08:12:06;;;;;;;10.00;6.43;;;;;;;8.19;100.00;96905.41;6128727;23;20404;-80
2022/10/05 08:14:37;;;;;;;8.47;7.67;;;;;;;8.67;100.00;96935.75;6128246;23;20396;-79
2022/10/05 08:17:14;;;;;;;7.03;5.73;;;;;;;8.75;100.00;96943.72;6154127;23;20390;-79
2022/10/05 08:19:52;;;;;;;6.17;5.67;;;;;;;8.69;100.00;96920.44;6154602;23;20466;-79
2022/10/05 08:22:27;;;;;;;6.07;5.47;;;;;;;9.08;100.00;96941.66;6128756;23;20365;-79
2022/10/05 08:25:00;;;;;;;7.40;5.90;;;;;;;8.91;100.00;96901.97;6128474;23;20705;-79
2022/10/05 08:28:01;;;;;;;6.10;5.50;;;;;;;9.17;100.00;96939.06;6128514;23;20910;-80
2022/10/05 08:30:32;;;;;;;6.70;5.53;;;;;;;9.51;100.00;96922.63;6104543;23;20859;-79
2022/10/05 08:33:11;;;;;;;6.33;5.73;;;;;;;9.54;100.00;96926.53;6129162;23;20842;-80
2022/10/05 08:35:45;;;;;;;6.20;5.60;;;;;;;9.15;100.00;96856.78;6128766;23;20446;-80
2022/10/05 08:38:16;;;;;;;6.37;5.53;;;;;;;9.76;100.00;96914.03;6128633;23;20942;-81
2022/10/05 08:40:45;;;;;;;8.87;6.30;;;;;;;9.84;100.00;96925.69;6128403;23;20427;-80
2022/10/05 08:43:51;;;;;;;6.47;5.87;;;;;;;9.97;100.00;96922.16;6104420;23;20743;-80
2022/10/05 08:46:49;;;;;;;27.27;24.13;;;;;;;9.80;100.00;96902.84;6109843;23;20764;-80
2022/10/05 08:49:53;;;;;;;9.50;7.53;;;;;;;9.99;100.00;96898.84;6104253;23;20502;-80
2022/10/05 08:52:27;;;;;;;10.87;8.83;;;;;;;10.00;100.00;96875.84;6061423;23;20404;-80
2022/10/05 08:55:29;;;;;;;10.33;7.20;;;;;;;10.24;100.00;96886.03;6104416;23;20396;-80
2022/10/05 08:57:57;;;;;;;9.37;6.70;;;;;;;10.71;100.00;96941.75;6154918;23;20430;-80
2022/10/05 09:00:47;;;;;;;8.63;7.40;;;;;;;10.73;100.00;96936.91;6104767;23;20423;-80
2022/10/05 09:03:14;;;;;;;6.70;6.00;;;;;;;10.82;100.00;96937.69;6144781;23;20491;-80
2022/10/05 09:06:03;;;;;;;10.40;7.03;;;;;;;10.39;100.00;96874.22;6104676;23;20812;-80
2022/10/05 09:08:32;;;;;;;8.17;7.47;;;;;;;11.02;100.00;96926.47;6129649;23;20411;-80
2022/10/05 09:11:23;;;;;;;7.97;6.40;;;;;;;11.14;100.00;96929.25;6105472;23;20442;-80
2022/10/05 09:14:17;;;;;;;9.27;6.40;;;;;;;11.21;100.00;96920.81;6130523;23;20478;-80
2022/10/05 09:16:52;;;;;;;7.83;7.07;;;;;;;11.13;100.00;96889.84;6107237;23;20747;-80
2022/10/05 09:19:21;;;;;;;7.80;7.07;;;;;;;11.58;100.00;96921.16;6157119;23;20777;-80
2022/10/05 09:22:14;;;;;;;8.40;7.37;;;;;;;11.62;100.00;96928.19;6107367;23;20400;-81
2022/10/05 09:25:07;;;;;;;9.50;8.60;;;;;;;11.45;100.00;96891.16;6138063;23;20451;-81
2022/10/05 09:27:53;;;;;;;7.43;6.83;;;;;;;11.49;100.00;96894.75;6139528;23;20396;-80
2022/10/05 09:30:56;;;;;;;8.80;7.03;;;;;;;11.44;100.00;96876.38;6137840;23;20368;-80
2022/10/05 09:33:41;;;;;;;7.67;6.87;;;;;;;11.90;100.00;96928.56;6115757;23;20422;-80
2022/10/05 09:36:26;;;;;;;8.83;6.90;;;;;;;12.03;100.00;96924.13;6140889;23;20368;-80
2022/10/05 09:39:14;;;;;;;8.50;7.57;;;;;;;12.05;100.00;96925.34;6133788;23;20415;-80
2022/10/05 09:41:50;;;;;;;9.20;7.93;;;;;;;12.16;100.00;96907.22;6106235;23;20402;-80
2022/10/05 09:44:20;;;;;;;8.20;5.70;;;;;;;12.18;100.00;96907.66;6130141;23;20407;-80
2022/10/05 09:46:59;;;;;;;6.43;5.80;;;;;;;12.49;100.00;96911.81;6130022;23;20741;-80
2022/10/05 09:49:38;;;;;;;6.50;5.80;;;;;;;12.39;100.00;96871.31;6105790;23;20941;-80
2022/10/05 09:52:05;;;;;;;6.17;5.57;;;;;;;12.79;100.00;96907.19;6156554;23;20410;-80
2022/10/05 09:54:54;;;;;;;7.10;5.57;;;;;;;12.86;100.00;96910.13;6130139;23;20396;-80
2022/10/05 09:57:44;;;;;;;8.47;6.20;;;;;;;12.49;100.00;96880.75;6129915;23;20392;-80
2022/10/05 10:00:28;;;;;;;7.57;5.33;;;;;;;12.91;100.00;96915.22;6130309;23;20418;-80
2022/10/05 10:03:18;;;;;;;7.30;5.93;;;;;;;12.90;100.00;96917.09;6105632;23;20398;-80
2022/10/05 10:06:15;;;;;;;5.40;5.00;;;;;;;12.60;100.00;96875.84;6062179;23;20399;-80
2022/10/05 10:08:47;;;;;;;7.07;6.30;;;;;;;12.47;100.00;96867.06;6155518;23;20490;-80
2022/10/05 10:11:44;;;;;;;7.40;5.10;;;;;;;12.79;100.00;96881.44;6155657;23;20370;-80
2022/10/05 10:14:29;;;;;;;6.70;6.07;;;;;;;12.94;100.00;96911.91;6105521;23;20940;-80
2022/10/05 10:17:05;;;;;;;5.90;5.40;;;;;;;12.79;100.00;96902.66;6105270;23;20418;-80
2022/10/05 10:19:34;;;;;;;6.30;5.80;;;;;;;13.07;100.00;96902.88;6156744;23;20773;-80
2022/10/05 10:22:23;;;;;;;8.27;5.87;;;;;;;13.11;100.00;96905.66;6129816;23;20388;-80
2022/10/05 10:25:18;;;;;;;5.80;5.10;;;;;;;13.13;100.00;96901.56;6155713;23;20368;-80
2022/10/05 10:27:53;;;;;;;10.53;5.93;;;;;;;13.08;100.00;96896.44;6129483;23;20435;-80
2022/10/05 10:30:38;;;;;;;5.90;5.20;;;;;;;13.01;100.00;96898.88;6129410;23;20387;-81
2022/10/05 10:33:27;;;;;;;5.53;5.03;;;;;;;13.25;100.00;96893.66;6105909;23;20408;-80
2022/10/05 10:36:11;;;;;;;9.30;6.03;;;;;;;13.47;100.00;96897.00;6107026;23;20401;-80
2022/10/05 10:38:50;;;;;;;7.43;6.20;;;;;;;13.39;100.00;96871.34;6107014;23;20431;-80
2022/10/05 10:41:47;;;;;;;5.43;5.03;;;;;;;13.48;100.00;96866.69;6157042;23;20443;-81
2022/10/05 10:44:47;;;;;;;5.20;4.67;;;;;;;13.85;100.00;96872.78;6157985;23;20395;-81
2022/10/05 10:47:49;;;;;;;9.60;7.70;;;;;;;14.25;100.00;96888.78;6130883;23;20908;-81
2022/10/05 10:50:28;;;;;;;8.83;7.07;;;;;;;14.44;100.00;96889.00;6131539;23;20829;-81
2022/10/05 10:53:21;;;;;;;34.27;20.93;;;;;;;14.69;100.00;96880.94;6131591;23;20431;-81
2022/10/05 10:56:10;;;;;;;6.27;5.67;;;;;;;14.80;100.00;96889.97;6106563;23;20396;-81
2022/10/05 10:59:08;;;;;;;8.07;6.00;;;;;;;14.57;100.00;96886.31;6131271;23;20495;-81
2022/10/05 11:01:34;;;;;;;5.20;4.40;;;;;;;14.77;100.00;96888.00;6131398;23;21105;-81
2022/10/05 11:04:07;;;;;;;4.80;4.40;;;;;;;14.69;100.00;96878.25;6106094;23;21056;-81
2022/10/05 11:06:34;;;;;;;4.97;4.53;;;;;;;14.86;100.00;96882.53;6131033;23;20423;-81
2022/10/05 11:09:23;;;;;;;5.17;4.67;;;;;;;15.00;100.00;96878.38;6131420;23;20535;-81
2022/10/05 11:12:04;;;;;;;6.57;4.67;;;;;;;15.25;100.00;96886.22;6157764;23;20377;-81
2022/10/05 11:15:15;;;;;;;6.07;5.27;;;;;;;15.37;100.00;96878.16;6131150;23;20379;-81
2022/10/05 11:17:42;;;;;;;5.43;4.93;;;;;;;15.54;100.00;96875.16;6098864;23;20434;-82
2022/10/05 11:21:06;;;;;;;7.80;7.03;;;;;;;15.59;100.00;96869.56;6131006;23;20526;-81
2022/10/05 11:23:38;;;;;;;5.23;4.80;;;;;;;15.64;100.00;96874.66;6058424;23;20482;-82
2022/10/05 11:26:26;;;;;;;5.20;4.70;;;;;;;15.68;100.00;96866.75;6082995;23;20474;-81
2022/10/05 11:28:59;;;;;;;5.73;5.23;;;;;;;15.76;100.00;96857.00;6093598;23;20484;-81
2022/10/05 11:31:44;;;;;;;5.70;5.20;;;;;;;15.63;100.00;96827.03;6121920;23;20388;-82
2022/10/05 11:34:30;;;;;;;5.87;5.27;;;;;;;15.85;100.00;96841.59;6143376;23;20407;-81
2022/10/05 11:37:39;;;;;;;5.00;4.50;;;;;;;16.00;100.00;96832.00;6159487;23;20398;-81
2022/10/05 11:40:32;;;;;;;4.83;4.43;;;;;;;16.24;100.00;96859.22;6107591;23;20495;-81
2022/10/05 11:43:32;;;;;;;7.17;4.57;;;;;;;16.24;100.00;96859.22;6130812;23;20438;-81
2022/10/05 11:46:23;;;;;;;5.80;4.70;;;;;;;16.04;100.00;96854.22;6130154;23;20415;-81
2022/10/05 11:48:50;;;;;;;5.27;4.87;;;;;;;16.35;100.00;96848.78;6131207;23;20432;-82
2022/10/05 11:51:28;;;;;;;5.53;4.70;;;;;;;15.88;100.00;96776.88;6130246;23;20452;-82
2022/10/05 11:54:33;;;;;;;5.63;5.10;;;;;;;16.53;100.00;96851.78;6156442;23;20398;-82
2022/10/05 11:57:39;;;;;;;6.30;4.83;;;;;;;16.42;100.00;96814.19;6125208;23;20405;-82
2022/10/05 12:00:24;;;;;;;6.37;5.77;;;;;;;16.71;100.00;96850.28;6105449;23;20502;-82
2022/10/05 12:03:13;;;;;;;7.47;5.30;;;;;;;16.80;100.00;96848.16;6105628;23;20424;-81
2022/10/05 12:05:50;;;;;;;6.27;4.57;;;;;;;16.84;100.00;96830.31;6105555;23;20400;-81
2022/10/05 12:08:47;;;;;;;6.50;5.07;;;;;;;16.67;100.00;96803.22;6130554;23;20408;-82
2022/10/05 12:11:34;;;;;;;8.30;5.63;;;;;;;16.70;100.00;96837.28;6129647;23;21150;-82
2022/10/05 12:14:09;;;;;;;7.13;4.87;;;;;;;16.58;100.00;96813.38;6130239;23;20450;-82
2022/10/05 12:16:40;;;;;;;5.17;4.23;;;;;;;16.71;100.00;96810.22;6130675;23;20906;-82
2022/10/05 12:19:22;;;;;;;4.80;4.40;;;;;;;16.73;100.00;96841.91;6105175;23;20438;-82
2022/10/05 12:22:14;;;;;;;4.27;3.87;;;;;;;16.60;100.00;96824.47;6156174;23;20370;-81
2022/10/05 12:25:07;;;;;;;4.50;3.90;;;;;;;16.68;100.00;96765.50;6130560;23;20818;-82
2022/10/05 12:27:39;;;;;;;6.47;4.90;;;;;;;17.10;100.00;96804.81;6091312;23;20411;-82
2022/10/05 12:30:35;;;;;;;5.80;3.60;;;;;;;17.50;100.00;96832.94;6130497;23;20390;-82
2022/10/05 12:33:14;;;;;;;5.77;5.27;;;;;;;17.64;100.00;96838.50;6115975;23;20431;-82
2022/10/05 12:35:49;;;;;;;5.20;4.70;;;;;;;17.46;100.00;96824.84;6130797;23;20400;-82
2022/10/05 12:38:46;;;;;;;5.00;4.60;;;;;;;17.57;100.00;96833.81;6130885;23;20426;-83
2022/10/05 12:41:16;;;;;;;4.87;4.47;;;;;;;17.19;100.00;96808.00;6130829;23;20483;-82
2022/10/05 12:44:11;;;;;;;4.00;3.60;;;;;;;17.62;100.00;96835.38;6131252;23;20392;-82
2022/10/05 12:46:51;;;;;;;4.83;4.43;;;;;;;17.85;100.00;96838.81;6131465;23;20767;-82
2022/10/05 12:49:27;;;;;;;6.17;4.10;;;;;;;18.00;100.00;96837.13;6133027;23;20475;-82